Flight Track Log - Related Links

Times and Time Zones

All times are in EDT time to prevent confusion due to time zone crossing. See the N1944E flight status page for this flight to view local times or setup timezone preferences in your user account.

Time Position Orientation Groundspeed Altitude Reporting Facility
EDT Latitude Longitude Course Direction KTS MPH feet Rate Location/Type
Tue 02:11:00 PM 48.1261 -107.0043 252° West  Level Estimated
Tue 02:12:00 PM 48.1116 -107.0691 251° West  Level Estimated
Tue 02:13:00 PM 48.0970 -107.1339 251° West  Level Estimated
Tue 02:14:00 PM 48.0824 -107.1986 251° West  Level Estimated
Tue 02:15:00 PM 48.0678 -107.2633 251° West  Level Estimated
Tue 02:16:00 PM 48.0531 -107.3279 251° West  Level Estimated
Tue 02:17:00 PM 48.0384 -107.3926 251° West  Level Estimated
Tue 02:18:00 PM 48.0237 -107.4571 251° West  Level Estimated
Tue 02:19:00 PM 48.0089 -107.5217 251° West  Level Estimated
Tue 02:20:00 PM 47.9941 -107.5862 251° West  Level Estimated
Tue 02:21:00 PM 47.9792 -107.6506 251° West  Level Estimated
Tue 02:21:08 PM 48.0019 -107.5364 251° West 178 205 16,000  Level Salt Lake Center
Tue 02:22:00 PM 47.9644 -107.7151 251° West  Level Estimated
Tue 02:22:10 PM 47.9903 -107.6233 259° West 180 207 16,000  Level Salt Lake Center
Tue 02:23:00 PM 47.9494 -107.7795 251° West  Level Estimated
Tue 02:23:12 PM 47.9764 -107.6956 254° West 180 207 16,000  Level Salt Lake Center
Tue 02:24:00 PM 47.9345 -107.8438 251° West  Level Estimated
Tue 02:24:14 PM 47.9622 -107.7656 253° West 179 206 16,000  Level Salt Lake Center
Tue 02:25:00 PM 47.9195 -107.9081 251° West  Level Estimated
Tue 02:25:16 PM 47.9478 -107.8344 253° West 176 203 16,000  Level Salt Lake Center
Tue 02:26:00 PM 47.9044 -107.9724 251° West  Level Estimated
Tue 02:26:18 PM 47.9331 -107.9025 252° West 174 200 16,000  Level Salt Lake Center
Tue 02:27:20 PM 47.9144 -107.9689 247° West 174 200 16,000  Level Salt Lake Center
Tue 02:28:22 PM 47.8956 -108.0486 251° West 172 198 16,000  Level Salt Lake Center
Tue 02:29:24 PM 47.8778 -108.1156 248° West 173 199 16,000  Level Salt Lake Center
Tue 02:30:26 PM 47.8608 -108.1811 249° West 172 198 16,000  Level Salt Lake Center
Tue 02:31:28 PM 47.8450 -108.2492 251° West 173 199 16,000  Level Salt Lake Center
Tue 02:32:30 PM 47.8281 -108.3153 249° West 172 198 16,000  Level Salt Lake Center
Tue 02:33:32 PM 47.8131 -108.3797 251° West 170 196 16,000  Level Salt Lake Center
Tue 02:34:34 PM 47.7967 -108.4475 250° West 171 197 16,000  Level Salt Lake Center
Tue 02:35:36 PM 47.7769 -108.5319 251° West 176 203 16,000  Level Salt Lake Center
Tue 02:36:38 PM 47.7611 -108.6008 251° West 177 204 16,000 -48 Level Salt Lake Center
Tue 02:37:40 PM 47.7444 -108.6703 250° West 178 205 15,900  Descending Salt Lake Center
Tue 02:38:42 PM 47.7286 -108.7400 251° West 179 206 16,000 48 Climbing Salt Lake Center
Tue 02:39:44 PM 47.7106 -108.8100 249° West 180 207 16,000  Level Salt Lake Center
Tue 02:40:45 PM 47.6919 -108.8811 249° West 181 208 16,000 -49 Level Salt Lake Center
Tue 02:41:47 PM 47.6711 -108.9642 250° West 182 209 15,900 48 Descending Salt Lake Center
Tue 02:42:49 PM 47.6536 -109.0325 249° West 180 207 16,100 97 Climbing Salt Lake Center
Tue 02:43:51 PM 47.6356 -109.1006 249° West 179 206 16,100  Level Salt Lake Center
Tue 02:44:53 PM 47.6194 -109.1700 251° West 178 205 16,100  Level Salt Lake Center
Tue 02:45:55 PM 47.6075 -109.2419 256° West 179 206 16,100  Level Salt Lake Center
Tue 02:46:57 PM 47.5978 -109.3122 258° West 178 205 16,100  Level Salt Lake Center
Tue 02:47:59 PM 47.5808 -109.3947 253° West 176 203 16,100  Level Salt Lake Center
Tue 02:49:01 PM 47.5631 -109.4614 248° West 174 200 16,100  Level Salt Lake Center
Tue 02:50:03 PM 47.5450 -109.5278 248° West 174 200 16,100  Level Salt Lake Center
Tue 02:51:05 PM 47.5272 -109.5931 248° West 173 199 16,100  Level Salt Lake Center
Tue 02:52:07 PM 47.5064 -109.6608 246° West 175 201 16,100  Level Salt Lake Center
Tue 02:53:09 PM 47.4847 -109.7258 244° Southwest 176 203 16,100  Level Salt Lake Center
Tue 02:54:11 PM 47.4594 -109.8036 244° Southwest 176 203 16,100  Level Salt Lake Center
Tue 02:55:12 PM 47.4381 -109.8692 244° Southwest 177 204 16,100  Level Salt Lake Center
Tue 02:56:14 PM 47.4200 -109.9347 248° West 175 201 16,100  Level Salt Lake Center
Tue 02:57:16 PM 47.4022 -109.9981 247° West 172 198 16,100  Level Salt Lake Center
Tue 02:58:18 PM 47.3831 -110.0622 246° West 171 197 16,100  Level Salt Lake Center
Tue 02:59:20 PM 47.3658 -110.1292 249° West 172 198 16,100  Level Salt Lake Center
Tue 03:00:21 PM 47.3475 -110.1956 248° West 174 200 16,100  Level Salt Lake Center
Tue 03:01:23 PM 47.3342 -110.2794 257° West 176 203 16,100  Level Salt Lake Center
Tue 03:02:25 PM 47.3211 -110.3486 254° West 175 201 16,100  Level Salt Lake Center
Tue 03:03:27 PM 47.3006 -110.4158 246° West 176 203 16,100  Level Salt Lake Center
Tue 03:04:29 PM 47.2775 -110.4803 242° Southwest 177 204 16,100  Level Salt Lake Center
Tue 03:05:30 PM 47.2536 -110.5453 242° Southwest 178 205 16,100  Level Salt Lake Center
Tue 03:06:32 PM 47.2308 -110.6083 242° Southwest 177 204 16,100  Level Salt Lake Center
Tue 03:07:34 PM 47.2125 -110.6753 248° West 177 204 16,100  Level Salt Lake Center
Tue 03:08:36 PM 47.1947 -110.7572 252° West 176 203 16,100  Level Salt Lake Center
Tue 03:09:38 PM 47.1789 -110.8247 251° West 175 201 16,100  Level Salt Lake Center
Tue 03:10:40 PM 47.1606 -110.8925 248° West 176 203 16,100  Level Salt Lake Center
Tue 03:11:41 PM 47.1428 -110.9625 250° West 179 206 16,100  Level Salt Lake Center
Tue 03:12:43 PM 47.1264 -111.0297 250° West 178 205 16,100  Level Salt Lake Center
Tue 03:13:45 PM 47.1172 -111.0978 259° West 172 198 16,100  Level Salt Lake Center
Tue 03:14:47 PM 47.1078 -111.1619 258° West 165 190 16,100  Level Salt Lake Center
Tue 03:15:49 PM 47.0931 -111.2250 251° West 164 189 16,100  Level Salt Lake Center
Tue 03:16:50 PM 47.0719 -111.3000 248° West 165 190 16,100  Level Salt Lake Center
Tue 03:17:52 PM 47.0558 -111.3669 251° West 171 197 16,100  Level Salt Lake Center
Tue 03:18:54 PM 47.0389 -111.4339 250° West 172 198 16,100  Level Salt Lake Center
Tue 03:19:56 PM 47.0217 -111.5008 249° West 175 201 16,100  Level Salt Lake Center
Tue 03:20:58 PM 47.0022 -111.5686 247° West 177 204 16,100  Level Salt Lake Center
Tue 03:21:59 PM 46.9828 -111.6297 245° Southwest 173 199 16,100  Level Salt Lake Center
Tue 03:23:01 PM 46.9631 -111.6925 245° Southwest 170 196 16,100  Level Salt Lake Center
Tue 03:24:03 PM 46.9383 -111.7644 243° Southwest 168 193 16,100  Level Salt Lake Center
Tue 03:25:05 PM 46.9200 -111.8233 246° West 164 189 16,100  Level Salt Lake Center
Tue 03:26:07 PM 46.9022 -111.8828 246° West 161 185 16,100  Level Salt Lake Center
Tue 03:27:09 PM 46.8856 -111.9431 248° West 160 184 16,100  Level Salt Lake Center
Tue 03:28:10 PM 46.8708 -112.0064 251° West 161 185 16,100  Level Salt Lake Center
Tue 03:29:12 PM 46.8589 -112.0711 255° West 163 188 16,100 -48 Level Salt Lake Center
Tue 03:30:14 PM 46.8456 -112.1364 253° West 166 191 16,000 -48 Descending Salt Lake Center
Tue 03:31:16 PM 46.8256 -112.2114 249° West 167 192 16,000  Level Salt Lake Center
Tue 03:32:18 PM 46.8081 -112.2703 247° West 161 185 16,000  Level Salt Lake Center
Tue 03:33:19 PM 46.7867 -112.3281 242° Southwest 161 185 16,000  Level Salt Lake Center
Tue 03:34:21 PM 46.7669 -112.3850 243° Southwest 160 184 16,000  Level Salt Lake Center
Tue 03:35:23 PM 46.7478 -112.4431 244° Southwest 158 182 16,000  Level Salt Lake Center
Tue 03:36:25 PM 46.7367 -112.5083 256° West 165 190 16,000  Level Salt Lake Center
Tue 03:37:26 PM 46.7397 -112.5769 274° West 168 193 16,000  Level Salt Lake Center
Tue 03:38:28 PM 46.7403 -112.6583 271° West 167 192 16,000  Level Salt Lake Center
Tue 03:39:30 PM 46.7389 -112.7256 268° West 166 191 16,000  Level Salt Lake Center
Tue 03:40:32 PM 46.7375 -112.7969 268° West 174 200 16,000  Level Salt Lake Center
Tue 03:41:33 PM 46.7356 -112.8681 268° West 176 203 16,000  Level Salt Lake Center
Tue 03:42:35 PM 46.7322 -112.9436 266° West 171 197 16,000  Level Salt Lake Center
Tue 03:43:37 PM 46.7275 -113.0117 264° West 170 196 16,000  Level Salt Lake Center
Tue 03:44:38 PM 46.7214 -113.0825 263° West 175 201 16,000 -293 Level Salt Lake Center
Tue 03:45:40 PM 46.7158 -113.1539 264° West 179 206 15,400 -484 Descending Salt Lake Center
Tue 03:46:42 PM 46.7114 -113.2331 265° West 194 223 15,000 -244 Descending Salt Lake Center
Tue 03:47:43 PM 46.7108 -113.3197 269° West 179 206 14,900 -244 Descending Salt Lake Center
Tue 03:48:45 PM 46.7108 -113.3936 270° West 183 211 14,500 -387 Descending Salt Lake Center
Tue 03:49:47 PM 46.7089 -113.4689 268° West 186 214 14,100 -341 Descending Salt Lake Center
Tue 03:50:48 PM 46.7036 -113.5492 265° West 185 213 13,800 -537 Descending Salt Lake Center
Tue 03:51:50 PM 46.7000 -113.6247 266° West 186 214 13,000 -435 Descending Salt Lake Center
Tue 03:52:52 PM 46.6961 -113.6986 266° West 185 213 12,900 -585 Descending Salt Lake Center
Tue 03:53:53 PM 46.6931 -113.7792 267° West 186 214 11,800 -927 Descending Salt Lake Center
Tue 03:54:55 PM 46.6878 -113.8589 265° West 196 226 11,000 -774 Descending Salt Lake Center

Login

Don't have an account? Register now (free) for customized features, flight alerts, and more!